createdAt,value
2022-08-27T00:00:16.699Z,101723.72
2022-08-27T00:02:43.961Z,101730.16
2022-08-27T00:05:16.479Z,101689.28
2022-08-27T00:07:43.182Z,101722.88
2022-08-27T00:10:15.243Z,101703.59
2022-08-27T00:12:42.022Z,101715.22
2022-08-27T00:15:09.495Z,101717.47
2022-08-27T00:17:37.979Z,101724.72
2022-08-27T00:20:07.138Z,101716.84
2022-08-27T00:22:34.180Z,101710.22
2022-08-27T00:25:01.215Z,101716.84
2022-08-27T00:27:27.770Z,101714.56
2022-08-27T00:29:54.286Z,101713.34
2022-08-27T00:32:20.799Z,101712.94
2022-08-27T00:34:47.291Z,101717.06
2022-08-27T00:37:14.206Z,101708.97
2022-08-27T00:39:40.821Z,101704.84
2022-08-27T00:42:08.166Z,101712.47
2022-08-27T00:44:35.000Z,101709.34
2022-08-27T00:47:05.507Z,101712.81
2022-08-27T00:49:52.964Z,101709.94
2022-08-27T00:52:36.794Z,101697.53
2022-08-27T00:55:13.755Z,101711.63
2022-08-27T00:57:43.331Z,101721.34
2022-08-27T01:00:13.350Z,101708.50
2022-08-27T01:02:42.135Z,101708.50
2022-08-27T01:05:12.312Z,101708.25
2022-08-27T01:07:41.163Z,101714.47
2022-08-27T01:10:13.951Z,101718.59
2022-08-27T01:12:40.702Z,101711.56
2022-08-27T01:15:12.001Z,101721.47
2022-08-27T01:17:42.347Z,101723.09
2022-08-27T01:20:16.504Z,101725.81
2022-08-27T01:23:06.070Z,101720.22
2022-08-27T01:25:33.439Z,101713.81
2022-08-27T01:28:02.916Z,101714.22
2022-08-27T01:30:31.288Z,101712.94
2022-08-27T01:32:57.894Z,101710.25
2022-08-27T01:35:25.403Z,101709.41
2022-08-27T01:37:54.355Z,101714.41
2022-08-27T01:40:23.853Z,101710.47
2022-08-27T01:42:54.934Z,101718.28
2022-08-27T01:45:25.976Z,101711.25
2022-08-27T01:47:53.040Z,101710.44
2022-08-27T01:50:29.548Z,101708.56
2022-08-27T01:52:56.695Z,101699.88
2022-08-27T01:55:26.547Z,101704.44
2022-08-27T01:57:54.773Z,101701.13
2022-08-27T02:00:27.005Z,101704.00
2022-08-27T02:02:53.828Z,101697.38
2022-08-27T02:05:20.441Z,101701.94
2022-08-27T02:07:47.549Z,101705.03
2022-08-27T02:10:17.597Z,101700.81
2022-08-27T02:12:44.098Z,101700.19
2022-08-27T02:15:11.059Z,101701.22
2022-08-27T02:17:38.657Z,101699.06
2022-08-27T02:20:09.440Z,101699.28
2022-08-27T02:22:35.967Z,101703.00
2022-08-27T02:25:02.631Z,101707.53
2022-08-27T02:27:29.159Z,101705.69
2022-08-27T02:29:55.761Z,101706.53
2022-08-27T02:32:31.633Z,101697.63
2022-08-27T02:34:59.843Z,101684.00
2022-08-27T02:37:26.657Z,101685.09
2022-08-27T02:39:53.237Z,101689.03
2022-08-27T02:42:19.886Z,101695.28
2022-08-27T02:44:47.277Z,101692.00
2022-08-27T02:47:14.472Z,101685.16
2022-08-27T02:49:41.106Z,101684.53
2022-08-27T02:52:07.882Z,101683.69
2022-08-27T02:54:34.610Z,101679.16
2022-08-27T02:57:01.114Z,101682.03
2022-08-27T02:59:27.711Z,101677.91
2022-08-27T03:01:54.307Z,101670.22
2022-08-27T03:04:22.783Z,101657.75
2022-08-27T03:06:49.700Z,101678.31
2022-08-27T03:09:16.335Z,101676.25
2022-08-27T03:11:42.867Z,101671.94
2022-08-27T03:14:09.469Z,101669.50
2022-08-27T03:16:37.845Z,101633.19
2022-08-27T03:19:09.187Z,101675.31
2022-08-27T03:21:36.464Z,101678.06
2022-08-27T03:24:09.458Z,101668.16
2022-08-27T03:26:38.290Z,101659.88
2022-08-27T03:29:05.116Z,101670.66
2022-08-27T03:31:31.869Z,101675.69
2022-08-27T03:34:01.875Z,101662.00
2022-08-27T03:36:30.355Z,101663.06
2022-08-27T03:38:57.645Z,101668.66
2022-08-27T03:41:45.537Z,101664.09
2022-08-27T03:44:12.162Z,101667.41
2022-08-27T03:46:48.032Z,101663.47
2022-08-27T03:49:14.537Z,101660.38
2022-08-27T03:51:41.087Z,101656.84
2022-08-27T03:54:08.660Z,101657.84
2022-08-27T03:56:39.364Z,101662.38
2022-08-27T03:59:06.859Z,101657.19
2022-08-27T04:01:33.507Z,101648.44
2022-08-27T04:04:00.321Z,101664.38
2022-08-27T04:06:28.239Z,101658.19
2022-08-27T04:08:54.961Z,101670.41
2022-08-27T04:11:22.184Z,101656.53
2022-08-27T04:13:48.904Z,101668.16
2022-08-27T04:16:15.497Z,101662.38
2022-08-27T04:18:42.050Z,101656.63
2022-08-27T04:21:13.084Z,101668.44
2022-08-27T04:23:41.806Z,101661.19
2022-08-27T04:26:09.995Z,101665.34
2022-08-27T04:28:38.851Z,101665.16
2022-08-27T04:31:06.784Z,101668.28
2022-08-27T04:33:38.449Z,101670.97
2022-08-27T04:36:07.640Z,101665.56
2022-08-27T04:38:34.274Z,101667.50
2022-08-27T04:41:21.423Z,101662.72
2022-08-27T04:43:50.535Z,101669.56
2022-08-27T04:46:32.327Z,101674.31
2022-08-27T04:49:00.568Z,101678.25
2022-08-27T04:51:29.073Z,101666.88
2022-08-27T04:53:56.715Z,101684.69
2022-08-27T04:56:28.372Z,101688.41
2022-08-27T04:58:55.663Z,101690.69
2022-08-27T05:01:26.583Z,101686.31
2022-08-27T05:03:54.199Z,101685.31
2022-08-27T05:06:21.747Z,101695.03
2022-08-27T05:08:49.852Z,101699.19
2022-08-27T05:11:18.694Z,101680.13
2022-08-27T05:13:46.022Z,101686.94
2022-08-27T05:16:15.462Z,101686.75
2022-08-27T05:18:48.368Z,101687.78
2022-08-27T05:21:21.308Z,101690.03
2022-08-27T05:23:48.478Z,101692.09
2022-08-27T05:26:15.650Z,101684.22
2022-08-27T05:28:42.793Z,101687.75
2022-08-27T05:31:11.586Z,101690.03
2022-08-27T05:33:39.309Z,101693.97
2022-08-27T05:36:07.331Z,101698.72
2022-08-27T05:38:34.776Z,101690.44
2022-08-27T05:41:04.718Z,101701.19
2022-08-27T05:43:32.264Z,101699.13
2022-08-27T05:45:58.838Z,101696.63
2022-08-27T05:48:25.555Z,101695.38
2022-08-27T05:50:52.015Z,101692.47
2022-08-27T05:53:18.567Z,101691.03
2022-08-27T05:55:45.892Z,101700.31
2022-08-27T05:58:33.571Z,101699.50
2022-08-27T06:01:10.111Z,101688.31
2022-08-27T06:03:38.409Z,101690.34
2022-08-27T06:06:08.893Z,101682.47
2022-08-27T06:08:36.770Z,101687.84
2022-08-27T06:11:05.448Z,101689.31
2022-08-27T06:13:34.308Z,101680.81
2022-08-27T06:16:07.243Z,101682.41
2022-08-27T06:18:35.018Z,101683.88
2022-08-27T06:21:01.594Z,101689.69
2022-08-27T06:23:28.891Z,101689.25
2022-08-27T06:25:57.015Z,101670.59
2022-08-27T06:28:27.734Z,101684.91
2022-08-27T06:30:54.310Z,101681.09
2022-08-27T06:33:21.339Z,101677.75
2022-08-27T06:35:47.810Z,101676.06
2022-08-27T06:38:14.420Z,101686.59
2022-08-27T06:40:42.166Z,101680.72
2022-08-27T06:43:08.696Z,101672.22
2022-08-27T06:45:39.320Z,101676.44
2022-08-27T06:48:06.188Z,101677.16
2022-08-27T06:50:38.124Z,101676.00
2022-08-27T06:53:05.307Z,101671.72
2022-08-27T06:55:35.436Z,101668.44
2022-08-27T06:58:03.840Z,101682.59
2022-08-27T07:00:30.441Z,101677.44
2022-08-27T07:02:57.525Z,101673.72
2022-08-27T07:05:24.078Z,101680.59
2022-08-27T07:07:50.793Z,101662.88
2022-08-27T07:10:17.364Z,101675.50
2022-08-27T07:12:43.905Z,101676.47
2022-08-27T07:15:10.911Z,101666.41
2022-08-27T07:17:37.395Z,101670.75
2022-08-27T07:20:05.228Z,101668.53
2022-08-27T07:22:31.737Z,101668.38
2022-08-27T07:24:58.214Z,101672.78
2022-08-27T07:27:24.763Z,101676.88
2022-08-27T07:29:51.254Z,101674.88
2022-08-27T07:32:18.331Z,101687.03
2022-08-27T07:34:45.024Z,101688.84
2022-08-27T07:37:11.671Z,101682.38
2022-08-27T07:39:38.144Z,101676.28
2022-08-27T07:42:30.565Z,101668.91
2022-08-27T07:44:57.084Z,101677.44
2022-08-27T07:47:23.587Z,101673.81
2022-08-27T07:49:51.289Z,101677.81
2022-08-27T07:52:18.228Z,101681.59
2022-08-27T07:54:44.947Z,101684.66
2022-08-27T07:57:11.915Z,101685.16
2022-08-27T07:59:38.403Z,101687.03
2022-08-27T08:02:05.101Z,101686.00
2022-08-27T08:04:31.670Z,101685.88
2022-08-27T08:06:58.783Z,101687.28
2022-08-27T08:09:25.355Z,101691.03
2022-08-27T08:11:53.246Z,101682.31
2022-08-27T08:14:21.709Z,101690.34
2022-08-27T08:16:48.384Z,101702.69
2022-08-27T08:19:15.146Z,101695.44
2022-08-27T08:21:42.762Z,101689.53
2022-08-27T08:24:09.467Z,101690.84
2022-08-27T08:26:36.241Z,101703.25
2022-08-27T08:29:05.168Z,101700.78
2022-08-27T08:31:31.688Z,101701.59
2022-08-27T08:33:58.173Z,101696.97
2022-08-27T08:36:24.983Z,101696.78
2022-08-27T08:38:51.669Z,101702.75
2022-08-27T08:41:39.353Z,101708.44
2022-08-27T08:44:25.964Z,101710.34
2022-08-27T08:47:06.472Z,101718.13
2022-08-27T08:49:46.522Z,101719.22
2022-08-27T08:52:40.597Z,101717.72
2022-08-27T08:55:36.739Z,101719.97
2022-08-27T08:58:19.600Z,101726.78
2022-08-27T09:00:53.841Z,101716.66
2022-08-27T09:03:21.114Z,101714.19
2022-08-27T09:05:55.639Z,101717.72
2022-08-27T09:08:37.630Z,101701.69
2022-08-27T09:11:43.247Z,101718.06
2022-08-27T09:14:26.745Z,101723.13
2022-08-27T09:16:56.428Z,101722.53
2022-08-27T09:19:24.801Z,101724.66
2022-08-27T09:22:00.175Z,101720.78
2022-08-27T09:25:03.376Z,101724.75
2022-08-27T09:27:32.144Z,101719.19
2022-08-27T09:29:58.714Z,101724.84
2022-08-27T09:32:32.115Z,101730.41
2022-08-27T09:35:05.647Z,101724.75
2022-08-27T09:37:51.600Z,101736.41
2022-08-27T09:40:38.166Z,101738.53
2022-08-27T09:43:15.570Z,101727.69
2022-08-27T09:45:49.222Z,101725.81
2022-08-27T09:48:20.222Z,101723.81
2022-08-27T09:50:50.738Z,101731.63
2022-08-27T09:53:20.525Z,101720.53
2022-08-27T09:56:04.061Z,101732.59
2022-08-27T09:58:49.664Z,101726.91
2022-08-27T10:01:22.543Z,101725.00
2022-08-27T10:03:49.610Z,101723.72
2022-08-27T10:06:28.107Z,101722.66
2022-08-27T10:09:06.524Z,101719.59
2022-08-27T10:11:43.774Z,101719.94
2022-08-27T10:14:19.240Z,101731.38
2022-08-27T10:16:51.045Z,101727.84
2022-08-27T10:19:34.106Z,101722.66
2022-08-27T10:22:05.302Z,101725.59
2022-08-27T10:24:48.339Z,101728.19
2022-08-27T10:27:26.827Z,101726.19
2022-08-27T10:30:07.587Z,101725.03
2022-08-27T10:32:55.239Z,101723.03
2022-08-27T10:35:35.700Z,101719.34
2022-08-27T10:39:03.076Z,101709.09
2022-08-27T10:41:43.750Z,101710.25
2022-08-27T10:44:10.197Z,101731.03
2022-08-27T10:46:55.422Z,101727.72
2022-08-27T10:49:35.360Z,101720.41
2022-08-27T10:52:04.218Z,101725.25
2022-08-27T10:54:47.763Z,101727.41
2022-08-27T10:57:58.728Z,101722.38
2022-08-27T11:00:45.464Z,101725.97
2022-08-27T11:03:18.992Z,101726.53
2022-08-27T11:05:48.821Z,101733.53
2022-08-27T11:08:42.908Z,101734.22
2022-08-27T11:14:28.999Z,101703.09
2022-08-27T11:17:03.015Z,101707.09
2022-08-27T11:20:05.462Z,101727.97
2022-08-27T11:22:53.815Z,101726.44
2022-08-27T11:25:23.173Z,101726.78
2022-08-27T11:27:52.115Z,101724.19
2022-08-27T11:30:56.470Z,101719.72
2022-08-27T11:33:39.259Z,101720.63
2022-08-27T11:36:26.779Z,101723.81
2022-08-27T11:39:03.078Z,101713.31
2022-08-27T11:41:56.262Z,101709.50
2022-08-27T11:44:25.397Z,101700.25
2022-08-27T11:46:56.463Z,101706.38
2022-08-27T11:49:47.670Z,101712.50
2022-08-27T11:52:23.900Z,101711.09
2022-08-27T11:54:55.899Z,101715.09
2022-08-27T11:57:34.545Z,101687.84
2022-08-27T12:00:16.345Z,101708.88
2022-08-27T12:02:44.689Z,101706.97
2022-08-27T12:05:26.817Z,101708.69
2022-08-27T12:07:53.808Z,101707.66
2022-08-27T12:10:28.451Z,101703.78
2022-08-27T12:13:16.560Z,101712.88
2022-08-27T12:15:55.871Z,101715.59
2022-08-27T12:18:37.324Z,101712.13
2022-08-27T12:21:15.400Z,101714.97
2022-08-27T12:23:47.051Z,101717.47
2022-08-27T12:26:25.739Z,101710.00
2022-08-27T12:29:16.318Z,101683.34
2022-08-27T12:31:46.430Z,101712.38
2022-08-27T12:34:20.078Z,101684.78
2022-08-27T12:36:54.222Z,101714.59
2022-08-27T12:39:28.461Z,101711.88
2022-08-27T12:41:55.781Z,101705.88
2022-08-27T12:44:31.477Z,101712.22
2022-08-27T12:47:04.210Z,101712.41
2022-08-27T12:49:44.099Z,101710.28
2022-08-27T12:52:24.223Z,101711.09
2022-08-27T12:55:22.016Z,101688.25
2022-08-27T12:58:26.072Z,101707.38
2022-08-27T13:01:15.687Z,101707.63
2022-08-27T13:03:50.460Z,101705.06
2022-08-27T13:06:21.704Z,101708.13
2022-08-27T13:08:54.340Z,101689.72
2022-08-27T13:11:27.322Z,101703.97
2022-08-27T13:14:09.556Z,101707.91
2022-08-27T13:16:39.905Z,101700.91
2022-08-27T13:19:07.100Z,101705.16
2022-08-27T13:21:33.869Z,101696.50
2022-08-27T13:24:03.847Z,101688.34
2022-08-27T13:26:34.313Z,101682.25
2022-08-27T13:29:03.720Z,101696.31
2022-08-27T13:31:31.867Z,101699.88
2022-08-27T13:33:59.644Z,101694.94
2022-08-27T13:36:32.110Z,101678.13
2022-08-27T13:39:00.923Z,101687.53
2022-08-27T13:41:36.460Z,101665.72
2022-08-27T13:44:09.686Z,101688.28
2022-08-27T13:46:48.756Z,101694.25
2022-08-27T13:49:25.401Z,101690.13
2022-08-27T13:52:06.953Z,101691.75
2022-08-27T13:54:34.639Z,101692.22
2022-08-27T13:57:09.939Z,101672.91
2022-08-27T13:59:43.047Z,101699.34
2022-08-27T14:02:10.034Z,101705.81
2022-08-27T14:04:41.640Z,101703.59
2022-08-27T14:07:08.525Z,101708.78
2022-08-27T14:09:47.830Z,101709.63
2022-08-27T14:12:34.211Z,101692.63
2022-08-27T14:15:20.118Z,101701.81
2022-08-27T14:17:47.584Z,101704.63
2022-08-27T14:20:15.877Z,101707.13
2022-08-27T14:22:43.456Z,101705.69
2022-08-27T14:25:10.672Z,101705.84
2022-08-27T14:27:38.469Z,101708.34
2022-08-27T14:30:15.264Z,101711.31
2022-08-27T14:32:42.424Z,101705.81
2022-08-27T14:35:10.942Z,101712.44
2022-08-27T14:37:39.412Z,101709.03
2022-08-27T14:40:06.399Z,101722.09
2022-08-27T14:42:33.143Z,101718.81
2022-08-27T14:45:00.004Z,101725.41
2022-08-27T14:47:31.102Z,101726.50
2022-08-27T14:49:59.818Z,101724.47
2022-08-27T14:52:26.348Z,101726.53
2022-08-27T14:54:52.858Z,101722.03
2022-08-27T14:57:19.539Z,101727.59
2022-08-27T14:59:46.012Z,101730.44
2022-08-27T15:02:13.987Z,101734.53
2022-08-27T15:04:40.952Z,101725.38
2022-08-27T15:07:10.811Z,101723.25
2022-08-27T15:09:37.295Z,101733.84
2022-08-27T15:12:04.242Z,101720.97
2022-08-27T15:14:34.858Z,101731.72
2022-08-27T15:17:02.973Z,101735.03
2022-08-27T15:19:48.783Z,101731.63
2022-08-27T15:22:22.163Z,101736.22
2022-08-27T15:24:54.941Z,101741.31
2022-08-27T15:27:22.700Z,101736.22
2022-08-27T15:30:00.003Z,101732.69
2022-08-27T15:32:31.920Z,101731.28
2022-08-27T15:35:01.032Z,101738.00
2022-08-27T15:37:27.657Z,101740.72
2022-08-27T15:39:54.458Z,101740.22
2022-08-27T15:42:21.410Z,101736.22
2022-08-27T15:44:52.470Z,101744.59
2022-08-27T15:47:19.700Z,101741.28
2022-08-27T15:49:46.491Z,101728.31
2022-08-27T15:52:16.759Z,101731.38
2022-08-27T15:54:44.474Z,101736.31
2022-08-27T15:57:11.409Z,101733.03
2022-08-27T15:59:38.903Z,101732.44
2022-08-27T16:02:07.595Z,101733.50
2022-08-27T16:04:34.028Z,101737.03
2022-08-27T16:07:00.403Z,101739.53
2022-08-27T16:09:26.982Z,101735.13
2022-08-27T16:11:53.380Z,101733.63
2022-08-27T16:14:19.804Z,101733.97
2022-08-27T16:16:47.317Z,101735.72
2022-08-27T16:19:16.563Z,101736.06
2022-08-27T16:21:43.815Z,101733.44
2022-08-27T16:24:10.865Z,101716.22
2022-08-27T16:26:37.842Z,101732.75
2022-08-27T16:29:05.446Z,101733.34
2022-08-27T16:31:32.816Z,101724.59
2022-08-27T16:33:59.901Z,101721.78
2022-08-27T16:36:26.452Z,101723.56
2022-08-27T16:38:52.939Z,101721.44
2022-08-27T16:41:19.969Z,101722.88
2022-08-27T16:43:48.545Z,101721.19
2022-08-27T16:46:15.219Z,101726.41
2022-08-27T16:49:01.028Z,101718.59
2022-08-27T16:51:34.663Z,101722.59
2022-08-27T16:54:06.935Z,101717.50
2022-08-27T16:56:37.000Z,101717.41
2022-08-27T16:59:05.134Z,101722.00
2022-08-27T17:01:33.224Z,101725.19
2022-08-27T17:04:13.378Z,101720.97
2022-08-27T17:06:44.948Z,101732.19
2022-08-27T17:09:12.587Z,101722.53
2022-08-27T17:11:41.907Z,101711.59
2022-08-27T17:14:10.720Z,101730.78
2022-08-27T17:16:37.995Z,101736.44
2022-08-27T17:19:05.679Z,101735.06
2022-08-27T17:21:33.978Z,101735.53
2022-08-27T17:24:02.386Z,101728.44
2022-08-27T17:26:30.466Z,101735.75
2022-08-27T17:28:57.165Z,101736.44
2022-08-27T17:31:29.820Z,101724.75
2022-08-27T17:33:59.572Z,101727.09
2022-08-27T17:36:27.309Z,101725.09
2022-08-27T17:38:54.202Z,101725.56
2022-08-27T17:41:32.957Z,101729.13
2022-08-27T17:44:03.489Z,101731.09
2022-08-27T17:46:29.958Z,101732.50
2022-08-27T17:48:56.398Z,101738.38
2022-08-27T17:51:23.259Z,101743.56
2022-08-27T17:53:54.229Z,101742.72
2022-08-27T17:56:25.385Z,101745.69
2022-08-27T17:58:53.669Z,101746.84
2022-08-27T18:01:24.665Z,101752.94
2022-08-27T18:03:56.856Z,101752.25
2022-08-27T18:06:25.258Z,101747.72
2022-08-27T18:08:51.746Z,101752.19
2022-08-27T18:11:18.636Z,101755.81
2022-08-27T18:13:52.194Z,101761.31
2022-08-27T18:16:18.983Z,101763.28
2022-08-27T18:18:45.457Z,101765.63
2022-08-27T18:21:12.161Z,101775.25
2022-08-27T18:23:39.344Z,101774.66
2022-08-27T18:26:11.879Z,101748.09
2022-08-27T18:28:38.280Z,101780.78
2022-08-27T18:31:06.740Z,101786.91
2022-08-27T18:33:33.486Z,101782.38
2022-08-27T18:35:59.962Z,101789.16
2022-08-27T18:38:26.935Z,101796.06
2022-08-27T18:40:54.324Z,101790.47
2022-08-27T18:43:26.232Z,101789.28
2022-08-27T18:45:52.693Z,101795.81
2022-08-27T18:48:22.452Z,101786.38
2022-08-27T18:50:55.471Z,101780.44
2022-08-27T18:53:22.032Z,101799.91
2022-08-27T18:55:50.459Z,101806.38
2022-08-27T18:58:18.249Z,101809.13
2022-08-27T19:00:50.218Z,101812.47
2022-08-27T19:03:21.861Z,101820.25
2022-08-27T19:05:48.442Z,101813.81
2022-08-27T19:08:22.079Z,101812.59
2022-08-27T19:10:48.663Z,101818.44
2022-08-27T19:13:15.105Z,101813.72
2022-08-27T19:15:44.561Z,101819.13
2022-08-27T19:18:11.591Z,101812.31
2022-08-27T19:20:38.165Z,101821.22
2022-08-27T19:23:04.688Z,101829.16
2022-08-27T19:25:31.586Z,101839.56
2022-08-27T19:27:58.295Z,101838.34
2022-08-27T19:30:24.842Z,101834.22
2022-08-27T19:32:54.957Z,101843.97
2022-08-27T19:35:24.690Z,101840.03
2022-08-27T19:37:52.868Z,101845.88
2022-08-27T19:40:19.662Z,101848.16
2022-08-27T19:42:46.173Z,101841.16
2022-08-27T19:45:12.828Z,101853.81
2022-08-27T19:47:39.566Z,101859.66
2022-08-27T19:50:06.489Z,101858.66
2022-08-27T19:52:32.922Z,101862.63
2022-08-27T19:55:15.351Z,101865.94
2022-08-27T19:57:43.196Z,101870.94
2022-08-27T20:00:11.861Z,101853.97
2022-08-27T20:02:39.038Z,101868.22
2022-08-27T20:05:17.971Z,101873.44
2022-08-27T20:07:49.594Z,101873.88
2022-08-27T20:10:16.799Z,101877.88
2022-08-27T20:12:43.639Z,101873.94
2022-08-27T20:15:10.861Z,101870.19
2022-08-27T20:17:37.435Z,101875.19
2022-08-27T20:20:06.314Z,101881.00
2022-08-27T20:22:32.727Z,101873.97
2022-08-27T20:24:59.177Z,101877.91
2022-08-27T20:27:25.646Z,101872.72
2022-08-27T20:29:53.563Z,101879.56
2022-08-27T20:32:21.044Z,101876.88
2022-08-27T20:34:47.563Z,101879.16
2022-08-27T20:37:14.307Z,101876.25
2022-08-27T20:39:40.823Z,101864.44
2022-08-27T20:42:07.300Z,101876.69
2022-08-27T20:44:33.950Z,101877.91
2022-08-27T20:47:01.819Z,101884.34
2022-08-27T20:49:29.916Z,101883.94
2022-08-27T20:52:02.696Z,101878.13
2022-08-27T20:54:31.598Z,101883.09
2022-08-27T20:56:58.243Z,101896.78
2022-08-27T20:59:43.498Z,101898.22
2022-08-27T21:02:12.518Z,101895.72
2022-08-27T21:04:42.225Z,101887.00
2022-08-27T21:07:09.046Z,101898.00
2022-08-27T21:09:35.603Z,101903.16
2022-08-27T21:12:22.767Z,101897.56
2022-08-27T21:14:49.709Z,101894.22
2022-08-27T21:17:21.274Z,101901.09
2022-08-27T21:19:47.688Z,101905.22
2022-08-27T21:22:14.134Z,101903.78
2022-08-27T21:24:40.620Z,101905.41
2022-08-27T21:27:07.151Z,101902.03
2022-08-27T21:29:34.018Z,101901.41
2022-08-27T21:32:00.499Z,101898.88
2022-08-27T21:34:28.169Z,101906.13
2022-08-27T21:36:54.747Z,101905.28
2022-08-27T21:39:21.281Z,101899.34
2022-08-27T21:41:48.086Z,101907.66
2022-08-27T21:44:14.859Z,101904.97
2022-08-27T21:46:41.390Z,101902.66
2022-08-27T21:49:08.120Z,101904.25
2022-08-27T21:51:34.732Z,101913.44
2022-08-27T21:54:01.173Z,101910.13
2022-08-27T21:56:28.286Z,101901.22
2022-08-27T21:58:54.701Z,101904.31
2022-08-27T22:01:21.658Z,101909.06
2022-08-27T22:03:50.783Z,101909.28
2022-08-27T22:06:18.073Z,101899.53
2022-08-27T22:08:44.667Z,101915.94
2022-08-27T22:11:11.908Z,101910.31
2022-08-27T22:13:39.600Z,101916.31
2022-08-27T22:16:06.727Z,101909.06
2022-08-27T22:18:33.227Z,101918.63
2022-08-27T22:21:00.543Z,101921.69
2022-08-27T22:23:27.456Z,101919.38
2022-08-27T22:25:53.917Z,101922.06
2022-08-27T22:28:20.316Z,101922.69
2022-08-27T22:30:46.747Z,101918.50
2022-08-27T22:33:13.641Z,101927.19
2022-08-27T22:35:40.401Z,101931.75
2022-08-27T22:38:07.266Z,101922.41
2022-08-27T22:40:35.274Z,101929.84
2022-08-27T22:43:02.222Z,101930.91
2022-08-27T22:45:28.836Z,101933.97
2022-08-27T22:47:55.328Z,101920.91
2022-08-27T22:50:22.664Z,101930.25
2022-08-27T22:52:49.659Z,101926.94
2022-08-27T22:55:19.438Z,101929.38
2022-08-27T22:57:47.904Z,101933.28
2022-08-27T23:00:23.183Z,101930.59
2022-08-27T23:02:49.602Z,101931.66
2022-08-27T23:05:16.265Z,101938.69
2022-08-27T23:07:43.179Z,101935.38
2022-08-27T23:10:12.867Z,101943.47
2022-08-27T23:12:39.402Z,101939.47
2022-08-27T23:15:10.608Z,101939.03
2022-08-27T23:17:37.448Z,101936.16
2022-08-27T23:20:06.724Z,101937.75
2022-08-27T23:22:34.594Z,101946.88
2022-08-27T23:25:19.638Z,101941.06
2022-08-27T23:27:46.138Z,101948.28
2022-08-27T23:30:15.075Z,101936.91
2022-08-27T23:32:46.384Z,101938.56
2022-08-27T23:35:17.133Z,101943.53
2022-08-27T23:37:43.694Z,101947.47
2022-08-27T23:40:12.733Z,101944.78
2022-08-27T23:42:40.950Z,101945.78
2022-08-27T23:45:10.209Z,101948.69
2022-08-27T23:47:37.033Z,101945.13
2022-08-27T23:50:05.576Z,101948.34
2022-08-27T23:52:32.075Z,101950.69
2022-08-27T23:54:58.791Z,101943.13
2022-08-27T23:57:25.637Z,101942.41
2022-08-27T23:59:52.110Z,101943.47
